Time;durP1;ratioP1;P1;durP2;ratioP2;P2;SDS_P1;SDS_P2;PMS_P1;PMS_P2;Temp;Humidity;BMP_temperature;BMP_pressure;BME280_temperature;BME280_humidity;BME280_pressure;Samples;Min_cycle;Max_cycle;Signal;HPM_P1;HPM_P2
2023/09/30 00:01:52;;;;;;;10.85;7.70;;;;;;;;;;5116990;27;20430;-72
2023/09/30 00:04:17;;;;;;;11.90;7.43;;;;;;;;;;5115368;27;20026;-73
2023/09/30 00:06:42;;;;;;;12.35;9.23;;;;;;;;;;5113394;27;20027;-74
2023/09/30 00:09:08;;;;;;;58.38;34.85;;;;;;;;;;5114767;27;20091;-74
2023/09/30 00:11:33;;;;;;;59.08;36.65;;;;;;;;;;5108107;27;20031;-74
2023/09/30 00:13:58;;;;;;;64.20;43.33;;;;;;;;;;5113553;27;21172;-74
2023/09/30 00:16:24;;;;;;;43.72;30.17;;;;;;;;;;5116547;27;20019;-73
2023/09/30 00:18:49;;;;;;;19.95;15.13;;;;;;;;;;5115772;27;20098;-73
2023/09/30 00:21:15;;;;;;;15.65;11.70;;;;;;;;;;5116660;27;20058;-74
2023/09/30 00:23:40;;;;;;;13.05;9.85;;;;;;;;;;5114727;27;20438;-74
2023/09/30 00:26:05;;;;;;;13.93;10.35;;;;;;;;;;5117174;27;20027;-75
2023/09/30 00:28:31;;;;;;;9.25;8.35;;;;;;;;;;5103995;27;20494;-74
2023/09/30 00:30:56;;;;;;;8.75;6.78;;;;;;;;;;5114607;27;20458;-73
2023/09/30 00:33:22;;;;;;;15.45;10.00;;;;;;;;;;5116545;27;21174;-74
2023/09/30 00:35:47;;;;;;;18.85;13.18;;;;;;;;;;5113159;27;20095;-73
2023/09/30 00:38:12;;;;;;;22.60;15.55;;;;;;;;;;5115748;27;20035;-75
2023/09/30 00:40:38;;;;;;;23.13;14.40;;;;;;;;;;5116464;27;20031;-73
2023/09/30 00:43:03;;;;;;;34.50;18.67;;;;;;;;;;5115112;27;20026;-74
2023/09/30 00:45:29;;;;;;;32.83;18.75;;;;;;;;;;5113475;27;20035;-73
2023/09/30 00:47:54;;;;;;;31.00;19.95;;;;;;;;;;5111424;27;20027;-73
2023/09/30 00:50:20;;;;;;;39.45;22.55;;;;;;;;;;5113114;27;20027;-74
2023/09/30 00:52:46;;;;;;;37.50;22.98;;;;;;;;;;5114818;27;20015;-73
2023/09/30 00:55:12;;;;;;;35.22;21.45;;;;;;;;;;5113512;27;20046;-73
2023/09/30 00:57:38;;;;;;;23.23;15.82;;;;;;;;;;5113530;27;20027;-73
2023/09/30 01:00:04;;;;;;;22.23;14.32;;;;;;;;;;5115859;27;20103;-73
2023/09/30 01:02:30;;;;;;;30.67;18.27;;;;;;;;;;5114271;27;20341;-74
2023/09/30 01:04:55;;;;;;;16.05;13.10;;;;;;;;;;5115841;27;20054;-74
2023/09/30 01:07:23;;;;;;;10.05;7.55;;;;;;;;;;5106653;27;20431;-74
2023/09/30 01:09:50;;;;;;;10.98;6.82;;;;;;;;;;5112081;27;20060;-74
2023/09/30 01:12:15;;;;;;;11.35;6.18;;;;;;;;;;5114505;27;20038;-75
2023/09/30 01:14:42;;;;;;;10.10;7.13;;;;;;;;;;5110618;27;20018;-73
2023/09/30 01:17:13;;;;;;;10.90;7.00;;;;;;;;;;5103112;27;20108;-75
2023/09/30 01:19:39;;;;;;;8.50;6.80;;;;;;;;;;5101056;27;20331;-73
2023/09/30 01:22:05;;;;;;;6.65;5.97;;;;;;;;;;5102232;27;20083;-73
2023/09/30 01:24:41;;;;;;;6.55;5.95;;;;;;;;;;5108605;27;20441;-75
2023/09/30 01:27:06;;;;;;;6.72;6.07;;;;;;;;;;5112884;27;20060;-73
2023/09/30 01:29:32;;;;;;;6.78;6.13;;;;;;;;;;5111635;27;20405;-73
2023/09/30 01:31:57;;;;;;;10.10;6.30;;;;;;;;;;5115342;27;20081;-75
2023/09/30 01:34:23;;;;;;;8.40;6.13;;;;;;;;;;5116460;27;20090;-73
2023/09/30 01:36:48;;;;;;;6.60;5.90;;;;;;;;;;5148661;27;20027;-74
2023/09/30 01:39:13;;;;;;;7.15;5.40;;;;;;;;;;5111952;28;20084;-75
2023/09/30 01:41:39;;;;;;;7.43;5.85;;;;;;;;;;5113380;27;20030;-74
2023/09/30 01:44:05;;;;;;;7.20;6.45;;;;;;;;;;5114993;27;20026;-73
2023/09/30 01:46:30;;;;;;;8.77;6.55;;;;;;;;;;5142815;27;20471;-73
2023/09/30 01:48:55;;;;;;;8.32;6.70;;;;;;;;;;5104159;28;20043;-73
2023/09/30 01:51:21;;;;;;;8.50;6.30;;;;;;;;;;5114382;28;20421;-73
2023/09/30 01:53:47;;;;;;;8.73;6.28;;;;;;;;;;5112316;28;20455;-74
2023/09/30 01:56:12;;;;;;;7.53;6.55;;;;;;;;;;5111374;28;20034;-75
2023/09/30 01:58:38;;;;;;;6.97;5.97;;;;;;;;;;5115502;27;20049;-73
2023/09/30 02:01:03;;;;;;;8.43;6.03;;;;;;;;;;5113909;28;20020;-74
2023/09/30 02:03:29;;;;;;;6.32;5.75;;;;;;;;;;5114178;27;20699;-73
2023/09/30 02:05:55;;;;;;;6.60;5.65;;;;;;;;;;5114272;27;20026;-73
2023/09/30 02:08:22;;;;;;;8.30;6.15;;;;;;;;;;5114853;27;20027;-73
2023/09/30 02:10:47;;;;;;;10.20;6.07;;;;;;;;;;5112908;27;20103;-73
2023/09/30 02:13:12;;;;;;;8.75;5.53;;;;;;;;;;5113022;27;20023;-75
2023/09/30 02:15:41;;;;;;;8.82;5.97;;;;;;;;;;5112989;27;20078;-74
2023/09/30 02:18:07;;;;;;;10.93;6.47;;;;;;;;;;5119957;27;20019;-75
2023/09/30 02:20:33;;;;;;;8.68;6.35;;;;;;;;;;5107900;27;20019;-74
2023/09/30 02:22:59;;;;;;;7.95;5.63;;;;;;;;;;5117151;27;20100;-74
2023/09/30 02:25:25;;;;;;;11.32;6.50;;;;;;;;;;5117432;27;20434;-75
2023/09/30 02:27:50;;;;;;;9.43;6.47;;;;;;;;;;5117248;27;20073;-74
2023/09/30 02:30:16;;;;;;;12.55;5.97;;;;;;;;;;5114459;27;20358;-75
2023/09/30 02:32:41;;;;;;;10.00;6.25;;;;;;;;;;5115672;27;20102;-75
2023/09/30 02:35:07;;;;;;;13.40;6.43;;;;;;;;;;5113192;27;20067;-75
2023/09/30 02:37:35;;;;;;;8.02;6.22;;;;;;;;;;5119414;27;20077;-76
2023/09/30 02:40:03;;;;;;;10.40;6.57;;;;;;;;;;5115732;27;20384;-74
2023/09/30 02:42:29;;;;;;;6.60;5.70;;;;;;;;;;5113352;27;20034;-74
2023/09/30 02:44:54;;;;;;;6.00;5.40;;;;;;;;;;5117326;27;20031;-75
2023/09/30 02:47:19;;;;;;;6.70;6.00;;;;;;;;;;5117537;27;20030;-74
2023/09/30 02:49:45;;;;;;;13.15;6.45;;;;;;;;;;5117456;27;20037;-74
2023/09/30 02:52:10;;;;;;;7.50;5.90;;;;;;;;;;5117003;27;20059;-73
2023/09/30 02:54:35;;;;;;;8.40;6.15;;;;;;;;;;5116378;27;20051;-75
2023/09/30 02:57:03;;;;;;;7.10;6.13;;;;;;;;;;5116069;27;20116;-73
2023/09/30 02:59:29;;;;;;;8.18;6.25;;;;;;;;;;5116288;27;20181;-74
2023/09/30 03:01:56;;;;;;;7.20;5.82;;;;;;;;;;5117327;27;20098;-74
2023/09/30 03:04:25;;;;;;;7.18;6.10;;;;;;;;;;5117063;27;20123;-74
2023/09/30 03:06:51;;;;;;;;;;;;;;;;;;5114463;27;20044;-74
2023/09/30 03:09:16;;;;;;;8.97;6.20;;;;;;;;;;5117483;27;19919;-74
2023/09/30 03:11:46;;;;;;;7.13;6.25;;;;;;;;;;5116155;27;20025;-74
2023/09/30 03:14:12;;;;;;;7.88;6.63;;;;;;;;;;5111223;27;20019;-74
2023/09/30 03:16:38;;;;;;;9.32;6.55;;;;;;;;;;5118041;27;20040;-76
2023/09/30 03:19:08;;;;;;;9.95;6.50;;;;;;;;;;5115287;27;20018;-76
2023/09/30 03:21:33;;;;;;;;;;;;;;;;;;5116790;27;20019;-74
2023/09/30 03:23:58;;;;;;;7.33;6.27;;;;;;;;;;5106675;27;19929;-76
2023/09/30 03:26:24;;;;;;;8.10;6.32;;;;;;;;;;5115519;27;20587;-73
2023/09/30 03:28:50;;;;;;;6.05;5.38;;;;;;;;;;5113319;27;20027;-74
2023/09/30 03:31:19;;;;;;;8.98;5.72;;;;;;;;;;5104706;27;20821;-73
2023/09/30 03:33:46;;;;;;;8.25;6.03;;;;;;;;;;5107743;27;20110;-74
2023/09/30 03:36:12;;;;;;;8.35;6.05;;;;;;;;;;5106319;27;20140;-73
2023/09/30 03:38:39;;;;;;;7.10;6.20;;;;;;;;;;5110381;27;20117;-73
2023/09/30 03:41:07;;;;;;;6.90;5.65;;;;;;;;;;5114506;27;20160;-73
2023/09/30 03:43:34;;;;;;;9.63;6.53;;;;;;;;;;5116356;27;20358;-72
2023/09/30 03:46:00;;;;;;;10.88;6.40;;;;;;;;;;5112323;27;20116;-75
2023/09/30 03:48:26;;;;;;;6.90;6.07;;;;;;;;;;5115312;27;20038;-74
2023/09/30 03:50:52;;;;;;;8.43;6.38;;;;;;;;;;5116120;27;20347;-74
2023/09/30 03:53:17;;;;;;;9.07;5.97;;;;;;;;;;5115512;27;20101;-73
2023/09/30 03:55:43;;;;;;;7.25;6.13;;;;;;;;;;5115382;27;20027;-74
2023/09/30 03:58:08;;;;;;;6.95;6.25;;;;;;;;;;5116425;27;20024;-74
2023/09/30 04:00:35;;;;;;;6.90;6.20;;;;;;;;;;5112575;27;20042;-74
2023/09/30 04:03:00;;;;;;;6.82;6.13;;;;;;;;;;5110749;27;20019;-74
2023/09/30 04:05:29;;;;;;;14.68;6.90;;;;;;;;;;5114180;27;20035;-73
2023/09/30 04:07:55;;;;;;;8.52;6.50;;;;;;;;;;5109695;27;20019;-73
2023/09/30 04:10:22;;;;;;;9.82;7.38;;;;;;;;;;5104076;27;20045;-74
2023/09/30 04:12:48;;;;;;;8.70;6.60;;;;;;;;;;5116801;27;20454;-72
2023/09/30 04:15:13;;;;;;;10.35;6.78;;;;;;;;;;5114984;27;20035;-74
2023/09/30 04:17:39;;;;;;;9.48;6.28;;;;;;;;;;5112805;27;20366;-73
2023/09/30 04:20:16;;;;;;;7.72;6.35;;;;;;;;;;5114682;27;20028;-73
2023/09/30 04:22:46;;;;;;;8.38;6.65;;;;;;;;;;5142424;27;20118;-75
2023/09/30 04:25:12;;;;;;;7.60;6.28;;;;;;;;;;5108559;27;20057;-74
2023/09/30 04:27:37;;;;;;;8.38;6.00;;;;;;;;;;5114477;27;20028;-76
2023/09/30 04:30:08;;;;;;;7.70;6.80;;;;;;;;;;5110040;27;20035;-73
2023/09/30 04:32:36;;;;;;;13.32;6.53;;;;;;;;;;5106239;27;20323;-73
2023/09/30 04:35:02;;;;;;;8.40;6.65;;;;;;;;;;5107849;27;20463;-73
2023/09/30 04:37:28;;;;;;;8.68;6.60;;;;;;;;;;5102985;27;20030;-74
2023/09/30 04:39:53;;;;;;;7.68;6.88;;;;;;;;;;5102581;27;20015;-73
2023/09/30 04:42:20;;;;;;;10.88;6.80;;;;;;;;;;5101998;27;20100;-76
2023/09/30 04:44:45;;;;;;;9.05;7.60;;;;;;;;;;5102857;27;20047;-76
2023/09/30 04:47:11;;;;;;;9.20;8.25;;;;;;;;;;5104354;27;20027;-73
2023/09/30 04:49:37;;;;;;;9.60;7.50;;;;;;;;;;5102852;27;20027;-73
2023/09/30 04:52:02;;;;;;;8.95;6.82;;;;;;;;;;5105087;27;20031;-74
2023/09/30 04:54:29;;;;;;;7.90;7.10;;;;;;;;;;5102837;27;20022;-73
2023/09/30 04:56:54;;;;;;;8.05;7.03;;;;;;;;;;5112447;27;20023;-75
2023/09/30 04:59:20;;;;;;;9.75;6.68;;;;;;;;;;5111352;27;20437;-74
2023/09/30 05:01:46;;;;;;;12.07;7.03;;;;;;;;;;5105215;27;20038;-73
2023/09/30 05:04:11;;;;;;;9.45;7.40;;;;;;;;;;5105600;27;20035;-73
2023/09/30 05:06:36;;;;;;;10.98;7.45;;;;;;;;;;5111926;27;20015;-75
2023/09/30 05:09:02;;;;;;;9.02;6.78;;;;;;;;;;5115484;27;20027;-74
2023/09/30 05:11:27;;;;;;;10.70;7.75;;;;;;;;;;5114280;27;20030;-76
2023/09/30 05:13:53;;;;;;;9.05;7.35;;;;;;;;;;5116275;27;20033;-73
2023/09/30 05:16:18;;;;;;;13.45;7.13;;;;;;;;;;5117421;27;20023;-74
2023/09/30 05:18:43;;;;;;;7.15;6.35;;;;;;;;;;5100845;27;20383;-75
2023/09/30 05:21:10;;;;;;;7.90;6.70;;;;;;;;;;5098596;27;20034;-73
2023/09/30 05:23:35;;;;;;;11.05;7.35;;;;;;;;;;5102049;27;20023;-73
2023/09/30 05:26:01;;;;;;;12.50;7.22;;;;;;;;;;5103168;27;20084;-73
2023/09/30 05:28:27;;;;;;;10.35;7.05;;;;;;;;;;5103289;27;20027;-73
2023/09/30 05:30:53;;;;;;;11.13;7.63;;;;;;;;;;5103805;27;20023;-72
2023/09/30 05:33:18;;;;;;;8.20;7.40;;;;;;;;;;5101836;27;20100;-74
2023/09/30 05:35:43;;;;;;;9.75;7.47;;;;;;;;;;5102889;27;20044;-74
2023/09/30 05:38:09;;;;;;;10.27;7.78;;;;;;;;;;5099813;28;20355;-73
2023/09/30 05:40:35;;;;;;;15.23;8.20;;;;;;;;;;5114839;28;20031;-72
2023/09/30 05:43:00;;;;;;;10.32;8.32;;;;;;;;;;5115305;27;20015;-71
2023/09/30 05:45:26;;;;;;;9.18;7.68;;;;;;;;;;5108709;28;20035;-72
2023/09/30 05:47:56;;;;;;;10.30;7.72;;;;;;;;;;5108144;27;20110;-74
2023/09/30 05:50:26;;;;;;;12.52;7.80;;;;;;;;;;5111741;27;20039;-72
2023/09/30 05:52:51;;;;;;;10.07;7.47;;;;;;;;;;5118651;27;20543;-73
2023/09/30 05:55:20;;;;;;;10.63;7.80;;;;;;;;;;5118146;27;20031;-72
2023/09/30 05:57:49;;;;;;;12.50;7.32;;;;;;;;;;5108036;27;20023;-73
2023/09/30 06:00:20;;;;;;;9.27;7.18;;;;;;;;;;5113369;27;20101;-72
2023/09/30 06:02:47;;;;;;;9.75;7.18;;;;;;;;;;5114947;27;20419;-74
2023/09/30 06:05:12;;;;;;;13.85;7.78;;;;;;;;;;5117964;27;20023;-75
2023/09/30 06:07:37;;;;;;;10.35;8.10;;;;;;;;;;5116680;27;20024;-72
2023/09/30 06:10:03;;;;;;;14.15;8.85;;;;;;;;;;5113517;27;20438;-72
2023/09/30 06:12:29;;;;;;;9.02;7.55;;;;;;;;;;5103929;27;20076;-71
2023/09/30 06:14:54;;;;;;;8.18;7.38;;;;;;;;;;5106163;27;20027;-71
2023/09/30 06:17:22;;;;;;;9.52;7.63;;;;;;;;;;5106359;27;20087;-75
2023/09/30 06:19:49;;;;;;;8.98;8.02;;;;;;;;;;5106072;27;20466;-72
2023/09/30 06:22:14;;;;;;;12.32;8.30;;;;;;;;;;5106154;27;20104;-72
2023/09/30 06:24:40;;;;;;;8.35;7.30;;;;;;;;;;5105779;27;20073;-71
2023/09/30 06:27:05;;;;;;;10.70;7.60;;;;;;;;;;5104554;27;20153;-71
2023/09/30 06:29:31;;;;;;;12.55;7.68;;;;;;;;;;5105533;27;20127;-71
2023/09/30 06:31:56;;;;;;;11.25;6.80;;;;;;;;;;5106719;27;20035;-73
2023/09/30 06:34:21;;;;;;;11.18;8.18;;;;;;;;;;5104493;27;20324;-73
2023/09/30 06:36:47;;;;;;;14.57;8.40;;;;;;;;;;5102991;27;20031;-74
2023/09/30 06:39:12;;;;;;;11.50;7.47;;;;;;;;;;5116079;27;20543;-74
2023/09/30 06:41:39;;;;;;;9.85;7.88;;;;;;;;;;5112590;27;20486;-74
2023/09/30 06:44:04;;;;;;;10.50;7.53;;;;;;;;;;5104740;27;20490;-76
2023/09/30 06:46:30;;;;;;;9.95;7.72;;;;;;;;;;5104335;27;20034;-74
2023/09/30 06:48:55;;;;;;;13.57;7.50;;;;;;;;;;5105607;27;20452;-76
2023/09/30 06:51:20;;;;;;;13.65;7.07;;;;;;;;;;5106262;27;20732;-76
2023/09/30 06:53:46;;;;;;;10.95;6.50;;;;;;;;;;5106041;27;20138;-75
2023/09/30 06:56:12;;;;;;;8.45;6.35;;;;;;;;;;5105290;27;20216;-74
2023/09/30 06:58:38;;;;;;;7.60;6.25;;;;;;;;;;5103922;27;20034;-74
2023/09/30 07:01:03;;;;;;;11.00;7.05;;;;;;;;;;5105204;27;20027;-74
2023/09/30 07:03:28;;;;;;;11.10;6.75;;;;;;;;;;5106851;27;20168;-73
2023/09/30 07:05:54;;;;;;;10.30;5.85;;;;;;;;;;5105403;27;20358;-75
2023/09/30 07:08:21;;;;;;;8.38;5.25;;;;;;;;;;5105404;27;20035;-76
2023/09/30 07:10:52;;;;;;;9.65;6.63;;;;;;;;;;5101472;27;20039;-75
2023/09/30 07:13:18;;;;;;;14.15;7.10;;;;;;;;;;5105173;27;20143;-74
2023/09/30 07:15:43;;;;;;;13.85;8.05;;;;;;;;;;5104152;27;20446;-73
2023/09/30 07:18:09;;;;;;;17.75;7.88;;;;;;;;;;5105126;27;20098;-72
2023/09/30 07:20:34;;;;;;;9.88;7.22;;;;;;;;;;5102331;27;20631;-76
2023/09/30 07:23:00;;;;;;;12.15;7.28;;;;;;;;;;5103573;27;20023;-76
2023/09/30 07:25:26;;;;;;;12.73;6.28;;;;;;;;;;5098780;27;20095;-73
2023/09/30 07:27:52;;;;;;;12.88;6.97;;;;;;;;;;5103825;27;20725;-73
2023/09/30 07:30:17;;;;;;;9.40;6.32;;;;;;;;;;5094857;27;20039;-72
2023/09/30 07:32:43;;;;;;;9.02;6.18;;;;;;;;;;5106811;27;20019;-72
2023/09/30 07:35:09;;;;;;;10.73;6.43;;;;;;;;;;5118279;27;20094;-71
2023/09/30 07:37:34;;;;;;;9.50;6.07;;;;;;;;;;5115688;27;20016;-71
2023/09/30 07:40:00;;;;;;;8.02;5.43;;;;;;;;;;5106573;27;20051;-73
2023/09/30 07:42:25;;;;;;;9.57;6.53;;;;;;;;;;5112085;27;20062;-75
2023/09/30 07:44:51;;;;;;;9.98;5.60;;;;;;;;;;5116139;27;20574;-74
2023/09/30 07:47:17;;;;;;;15.68;6.20;;;;;;;;;;5115171;27;20037;-73
2023/09/30 07:49:42;;;;;;;6.07;5.30;;;;;;;;;;5116213;27;20350;-73
2023/09/30 07:52:08;;;;;;;9.75;6.00;;;;;;;;;;5112313;27;20031;-72
2023/09/30 07:54:33;;;;;;;8.60;5.10;;;;;;;;;;5115631;27;20024;-73
2023/09/30 07:56:59;;;;;;;7.85;4.90;;;;;;;;;;5116067;27;20019;-72
2023/09/30 07:59:25;;;;;;;11.60;5.45;;;;;;;;;;5116916;27;20087;-75
2023/09/30 08:01:51;;;;;;;11.27;5.70;;;;;;;;;;5116069;27;20025;-73
2023/09/30 08:04:17;;;;;;;7.30;5.38;;;;;;;;;;5113815;27;20020;-73
2023/09/30 08:06:44;;;;;;;9.85;5.43;;;;;;;;;;5111250;27;20053;-73
2023/09/30 08:09:12;;;;;;;11.23;4.60;;;;;;;;;;5115016;27;20027;-73
2023/09/30 08:11:38;;;;;;;7.03;4.75;;;;;;;;;;5116175;27;20110;-72
2023/09/30 08:14:06;;;;;;;8.15;5.03;;;;;;;;;;5118046;27;20106;-72
2023/09/30 08:16:32;;;;;;;10.18;5.50;;;;;;;;;;5100592;27;20032;-73
2023/09/30 08:18:58;;;;;;;11.25;5.95;;;;;;;;;;5111124;27;20037;-72
2023/09/30 08:21:23;;;;;;;6.68;4.75;;;;;;;;;;5108645;27;20015;-72
2023/09/30 08:23:48;;;;;;;9.18;4.60;;;;;;;;;;5108230;27;20031;-73
2023/09/30 08:26:14;;;;;;;11.43;6.07;;;;;;;;;;5114377;27;20031;-75
2023/09/30 08:28:39;;;;;;;9.73;7.00;;;;;;;;;;5114138;27;20027;-78
2023/09/30 08:31:05;;;;;;;9.88;5.32;;;;;;;;;;5107533;27;20510;-80
2023/09/30 08:33:31;;;;;;;12.68;5.07;;;;;;;;;;5101699;27;20039;-77
2023/09/30 08:35:58;;;;;;;11.38;5.05;;;;;;;;;;5107210;27;20411;-73
2023/09/30 08:38:24;;;;;;;8.05;5.82;;;;;;;;;;5109888;27;20019;-75
2023/09/30 08:40:51;;;;;;;13.00;5.88;;;;;;;;;;5115785;27;20030;-73
2023/09/30 08:43:19;;;;;;;8.13;4.88;;;;;;;;;;5116543;27;20023;-72
2023/09/30 08:45:46;;;;;;;12.05;6.68;;;;;;;;;;5108263;27;20035;-73
2023/09/30 08:48:11;;;;;;;9.10;6.30;;;;;;;;;;5103014;27;20042;-73
2023/09/30 08:50:40;;;;;;;8.50;6.70;;;;;;;;;;5104328;27;20453;-73
2023/09/30 08:53:07;;;;;;;10.15;6.25;;;;;;;;;;5101644;27;20037;-72
2023/09/30 08:55:33;;;;;;;10.98;5.80;;;;;;;;;;5100948;27;20632;-76
2023/09/30 08:57:59;;;;;;;14.45;9.77;;;;;;;;;;5106999;27;20081;-73
2023/09/30 09:00:24;;;;;;;10.55;6.43;;;;;;;;;;5104335;27;20043;-72
2023/09/30 09:02:50;;;;;;;8.40;6.30;;;;;;;;;;5104071;27;20062;-73
2023/09/30 09:05:15;;;;;;;11.20;5.97;;;;;;;;;;5103372;27;20027;-75
2023/09/30 09:07:42;;;;;;;6.00;5.40;;;;;;;;;;5107959;27;20031;-72
2023/09/30 09:10:10;;;;;;;11.10;5.28;;;;;;;;;;5067097;27;20130;-73
2023/09/30 09:12:38;;;;;;;8.05;4.82;;;;;;;;;;5116178;27;20023;-74
2023/09/30 09:15:24;;;;;;;10.25;6.47;;;;;;;;;;5103299;27;20446;-73
2023/09/30 09:17:51;;;;;;;9.15;5.80;;;;;;;;;;5107120;27;20046;-73
2023/09/30 09:20:20;;;;;;;8.90;5.13;;;;;;;;;;5110840;27;20045;-74
2023/09/30 09:22:46;;;;;;;7.13;5.25;;;;;;;;;;5109969;27;20139;-74
2023/09/30 09:25:12;;;;;;;14.20;5.82;;;;;;;;;;5116467;27;20147;-75
2023/09/30 09:27:38;;;;;;;11.40;5.97;;;;;;;;;;5111414;27;20114;-74
2023/09/30 09:30:19;;;;;;;6.78;5.05;;;;;;;;;;5112763;28;20050;-75
2023/09/30 09:32:54;;;;;;;11.48;5.20;;;;;;;;;;5107889;28;20030;-75
2023/09/30 09:35:22;;;;;;;11.13;4.95;;;;;;;;;;5113051;27;20034;-76
2023/09/30 09:37:54;;;;;;;9.85;5.97;;;;;;;;;;5111196;28;20450;-73
2023/09/30 09:40:22;;;;;;;9.07;4.80;;;;;;;;;;5112122;28;20044;-74
2023/09/30 09:42:50;;;;;;;9.63;4.80;;;;;;;;;;5113439;27;20114;-74
2023/09/30 09:45:16;;;;;;;9.15;4.50;;;;;;;;;;5115386;27;20036;-73
2023/09/30 09:47:41;;;;;;;8.98;4.57;;;;;;;;;;5112020;28;20027;-74
2023/09/30 09:50:07;;;;;;;7.72;4.03;;;;;;;;;;5114363;28;20092;-74
2023/09/30 09:52:34;;;;;;;12.10;4.70;;;;;;;;;;5113045;28;20052;-75
2023/09/30 09:54:59;;;;;;;11.88;4.85;;;;;;;;;;5115079;27;20034;-74
2023/09/30 09:57:25;;;;;;;6.43;4.00;;;;;;;;;;5116374;28;20019;-74
2023/09/30 09:59:52;;;;;;;6.43;4.32;;;;;;;;;;5116112;28;20502;-74
2023/09/30 10:02:19;;;;;;;9.80;5.13;;;;;;;;;;5115624;27;20102;-74
2023/09/30 10:04:45;;;;;;;9.02;4.60;;;;;;;;;;5110595;28;20099;-73
2023/09/30 10:07:14;;;;;;;8.70;4.55;;;;;;;;;;5105300;27;20046;-73
2023/09/30 10:09:41;;;;;;;5.47;4.70;;;;;;;;;;5113640;27;20377;-74
2023/09/30 10:12:08;;;;;;;15.55;8.75;;;;;;;;;;5115239;27;20027;-74
2023/09/30 10:14:35;;;;;;;6.07;4.75;;;;;;;;;;5106090;28;20047;-74
2023/09/30 10:17:01;;;;;;;10.85;4.90;;;;;;;;;;5114005;27;20046;-74
2023/09/30 10:19:27;;;;;;;6.40;4.30;;;;;;;;;;5113997;27;20427;-76
2023/09/30 10:22:11;;;;;;;11.35;5.22;;;;;;;;;;5115356;28;20126;-76
2023/09/30 10:24:36;;;;;;;8.20;4.68;;;;;;;;;;5112634;28;20405;-74
2023/09/30 10:27:21;;;;;;;8.65;4.65;;;;;;;;;;5115942;28;20110;-74
2023/09/30 10:29:46;;;;;;;7.95;4.05;;;;;;;;;;5115147;28;20039;-75
2023/09/30 10:32:11;;;;;;;7.43;4.18;;;;;;;;;;5112202;28;20030;-75
2023/09/30 10:34:37;;;;;;;11.52;4.38;;;;;;;;;;5113992;27;20142;-75
2023/09/30 10:37:22;;;;;;;9.32;4.13;;;;;;;;;;5117094;27;20085;-75
2023/09/30 10:40:03;;;;;;;12.10;4.40;;;;;;;;;;5115106;27;20034;-73
2023/09/30 10:42:52;;;;;;;7.70;3.92;;;;;;;;;;5116606;27;20020;-75
2023/09/30 10:45:36;;;;;;;7.38;3.63;;;;;;;;;;5113372;27;20020;-75
2023/09/30 10:48:20;;;;;;;7.55;4.30;;;;;;;;;;5107022;27;20057;-76
2023/09/30 10:50:53;;;;;;;6.15;4.40;;;;;;;;;;5117547;27;20038;-76
2023/09/30 10:53:18;;;;;;;9.88;4.03;;;;;;;;;;5104890;27;20023;-77
2023/09/30 10:55:47;;;;;;;10.35;4.45;;;;;;;;;;5115930;27;20087;-75
2023/09/30 10:58:12;;;;;;;6.65;4.05;;;;;;;;;;5116229;27;20027;-77
2023/09/30 11:00:38;;;;;;;6.13;3.78;;;;;;;;;;5114331;27;20051;-76
2023/09/30 11:03:05;;;;;;;7.93;3.75;;;;;;;;;;5117461;27;20131;-76
2023/09/30 11:05:31;;;;;;;8.75;4.28;;;;;;;;;;5119808;27;20051;-76
2023/09/30 11:07:58;;;;;;;12.23;4.10;;;;;;;;;;5115546;27;20377;-78
2023/09/30 11:10:24;;;;;;;9.93;4.37;;;;;;;;;;5117202;27;21020;-75
2023/09/30 11:12:56;;;;;;;10.48;4.28;;;;;;;;;;5118375;27;20034;-74
2023/09/30 11:15:22;;;;;;;10.25;4.63;;;;;;;;;;5118569;27;20023;-74
2023/09/30 11:17:47;;;;;;;9.00;3.78;;;;;;;;;;5113115;27;20038;-77
2023/09/30 11:20:12;;;;;;;7.15;4.00;;;;;;;;;;5106655;27;20106;-75
2023/09/30 11:22:39;;;;;;;11.07;3.88;;;;;;;;;;5111128;27;20450;-75
2023/09/30 11:25:04;;;;;;;6.93;4.05;;;;;;;;;;5114352;27;20027;-76
2023/09/30 11:27:31;;;;;;;8.10;4.10;;;;;;;;;;5115258;27;20039;-78
2023/09/30 11:29:58;;;;;;;5.50;3.47;;;;;;;;;;5111393;27;20031;-75
2023/09/30 11:32:28;;;;;;;6.90;3.75;;;;;;;;;;5107615;27;20346;-75
2023/09/30 11:34:53;;;;;;;7.72;3.90;;;;;;;;;;5109766;27;20374;-75
2023/09/30 11:37:19;;;;;;;11.07;4.10;;;;;;;;;;5105853;27;20024;-74
2023/09/30 11:39:44;;;;;;;12.13;4.57;;;;;;;;;;5105265;27;20049;-75
2023/09/30 11:42:20;;;;;;;5.57;3.70;;;;;;;;;;5104346;27;20023;-74
2023/09/30 11:44:49;;;;;;;8.73;3.85;;;;;;;;;;5100382;27;20039;-76
2023/09/30 11:47:16;;;;;;;6.25;3.75;;;;;;;;;;5103403;27;20023;-74
2023/09/30 11:49:44;;;;;;;7.45;4.18;;;;;;;;;;5111438;27;20354;-77
2023/09/30 11:52:14;;;;;;;6.80;3.70;;;;;;;;;;5107245;27;20027;-73
2023/09/30 11:54:42;;;;;;;7.18;3.88;;;;;;;;;;5115417;27;20120;-74
2023/09/30 11:57:11;;;;;;;5.03;4.13;;;;;;;;;;5106668;27;20128;-77
2023/09/30 11:59:37;;;;;;;6.85;4.20;;;;;;;;;;5103822;27;20489;-74
2023/09/30 12:02:05;;;;;;;10.35;4.47;;;;;;;;;;5114207;27;20671;-75
2023/09/30 12:04:30;;;;;;;5.60;3.70;;;;;;;;;;5099527;27;20027;-74
2023/09/30 12:06:57;;;;;;;5.40;3.92;;;;;;;;;;5104811;27;20434;-74
2023/09/30 12:09:22;;;;;;;8.02;4.32;;;;;;;;;;5101223;27;20027;-77
2023/09/30 12:11:48;;;;;;;9.27;4.53;;;;;;;;;;5105340;27;20019;-74
2023/09/30 12:14:13;;;;;;;7.53;3.95;;;;;;;;;;5113251;27;21042;-73
2023/09/30 12:16:39;;;;;;;10.57;3.97;;;;;;;;;;5098899;27;20028;-74
2023/09/30 12:19:08;;;;;;;10.38;4.32;;;;;;;;;;5088821;27;20062;-74
2023/09/30 12:21:34;;;;;;;;;;;;;;;;;;5090966;27;20024;-74
2023/09/30 12:23:59;;;;;;;5.93;4.18;;;;;;;;;;5092982;27;19919;-76
2023/09/30 12:26:25;;;;;;;10.75;4.35;;;;;;;;;;5091636;27;20037;-75
2023/09/30 12:28:51;;;;;;;10.65;6.60;;;;;;;;;;5090898;27;20377;-74
2023/09/30 12:31:17;;;;;;;6.88;3.85;;;;;;;;;;5091579;27;20035;-72
2023/09/30 12:33:42;;;;;;;8.27;4.05;;;;;;;;;;5103178;27;20067;-76
2023/09/30 12:36:07;;;;;;;7.15;4.82;;;;;;;;;;5115259;27;20042;-73
2023/09/30 12:38:33;;;;;;;14.38;6.47;;;;;;;;;;5116953;27;20087;-74
2023/09/30 12:40:58;;;;;;;12.00;4.90;;;;;;;;;;5109284;27;20606;-73
2023/09/30 12:43:24;;;;;;;8.70;4.70;;;;;;;;;;5104346;27;20483;-72
2023/09/30 12:45:50;;;;;;;6.30;3.97;;;;;;;;;;5115368;27;20022;-73
2023/09/30 12:48:17;;;;;;;5.88;3.92;;;;;;;;;;5113466;27;20042;-73
2023/09/30 12:50:42;;;;;;;7.40;3.97;;;;;;;;;;5114775;27;20063;-76
2023/09/30 12:53:07;;;;;;;5.47;3.88;;;;;;;;;;5114945;27;20096;-74
2023/09/30 12:55:33;;;;;;;6.72;4.20;;;;;;;;;;5113602;27;20037;-76
2023/09/30 12:57:59;;;;;;;11.30;3.92;;;;;;;;;;5111842;27;20569;-74
2023/09/30 13:00:26;;;;;;;7.60;3.78;;;;;;;;;;5088829;27;20103;-72
2023/09/30 13:02:51;;;;;;;11.05;4.07;;;;;;;;;;5092994;27;20027;-74
2023/09/30 13:05:17;;;;;;;10.18;3.97;;;;;;;;;;5097089;27;20042;-74
2023/09/30 13:07:42;;;;;;;9.18;4.30;;;;;;;;;;5096253;27;20015;-75
2023/09/30 13:10:08;;;;;;;10.18;4.15;;;;;;;;;;5100170;27;20039;-72
2023/09/30 13:12:33;;;;;;;6.82;4.18;;;;;;;;;;5094506;27;20018;-72
2023/09/30 13:14:59;;;;;;;9.27;3.90;;;;;;;;;;5105552;27;20027;-71
2023/09/30 13:17:25;;;;;;;5.30;3.65;;;;;;;;;;5096716;27;20022;-72
2023/09/30 13:19:51;;;;;;;7.82;4.10;;;;;;;;;;5107028;27;20041;-72
2023/09/30 13:22:16;;;;;;;7.32;3.58;;;;;;;;;;5094328;27;20347;-75
2023/09/30 13:24:42;;;;;;;8.15;3.65;;;;;;;;;;5090323;27;20015;-72
2023/09/30 13:27:07;;;;;;;9.40;3.50;;;;;;;;;;5103582;27;20119;-72
2023/09/30 13:29:33;;;;;;;8.88;3.97;;;;;;;;;;5107279;27;20032;-74
2023/09/30 13:31:58;;;;;;;6.07;4.20;;;;;;;;;;5091489;27;20108;-75
2023/09/30 13:34:24;;;;;;;9.48;4.00;;;;;;;;;;5099632;27;20055;-74
2023/09/30 13:36:50;;;;;;;10.90;4.00;;;;;;;;;;5101488;27;20106;-71
2023/09/30 13:39:17;;;;;;;6.47;4.10;;;;;;;;;;5101760;28;20510;-71
2023/09/30 13:41:42;;;;;;;7.20;4.32;;;;;;;;;;5097701;28;20031;-72
2023/09/30 13:44:08;;;;;;;11.02;4.07;;;;;;;;;;5104895;28;20043;-72
2023/09/30 13:46:33;;;;;;;6.40;3.78;;;;;;;;;;5112495;28;20076;-72
2023/09/30 13:48:58;;;;;;;10.93;4.28;;;;;;;;;;5100530;28;20202;-72
2023/09/30 13:51:24;;;;;;;7.50;3.97;;;;;;;;;;5088800;28;20035;-72
2023/09/30 13:53:49;;;;;;;12.82;4.30;;;;;;;;;;5101327;28;20027;-74
2023/09/30 13:56:14;;;;;;;8.15;3.72;;;;;;;;;;5107738;27;20027;-71
2023/09/30 13:58:40;;;;;;;9.60;4.63;;;;;;;;;;5091789;28;20027;-70
2023/09/30 14:01:06;;;;;;;12.00;3.90;;;;;;;;;;5089056;28;20082;-74
2023/09/30 14:03:32;;;;;;;5.65;3.75;;;;;;;;;;5101919;28;20030;-72
2023/09/30 14:05:57;;;;;;;8.73;4.88;;;;;;;;;;5109876;28;20031;-73
2023/09/30 14:08:24;;;;;;;7.40;3.92;;;;;;;;;;5100186;27;20119;-70
2023/09/30 14:10:51;;;;;;;5.53;3.50;;;;;;;;;;5097268;27;20040;-71
2023/09/30 14:13:16;;;;;;;7.07;3.90;;;;;;;;;;5095455;27;20035;-72
2023/09/30 14:15:41;;;;;;;11.13;3.75;;;;;;;;;;5096081;27;20026;-71
2023/09/30 14:18:07;;;;;;;8.68;3.75;;;;;;;;;;5098284;27;20114;-75
2023/09/30 14:20:34;;;;;;;5.22;3.75;;;;;;;;;;5095682;27;20339;-71
2023/09/30 14:22:59;;;;;;;8.02;3.88;;;;;;;;;;5097047;27;20426;-72
2023/09/30 14:25:25;;;;;;;6.93;4.28;;;;;;;;;;5095296;27;20045;-71
2023/09/30 14:27:50;;;;;;;10.48;4.40;;;;;;;;;;5096201;27;20027;-76
2023/09/30 14:30:15;;;;;;;11.57;4.47;;;;;;;;;;5095509;27;20047;-72
2023/09/30 14:32:41;;;;;;;8.70;4.15;;;;;;;;;;5100977;27;20080;-74
2023/09/30 14:35:09;;;;;;;6.20;4.25;;;;;;;;;;5108799;27;20054;-70